sensor_id;sensor_type;location;lat;lon;timestamp;temperature;humidity
78520;SHT31;67818;51.986;5.648;2023-04-03T00:02:06;5.0;61.8
78520;SHT31;67818;51.986;5.648;2023-04-03T00:04:41;5.0;62.6
78520;SHT31;67818;51.986;5.648;2023-04-03T00:07:10;5.0;62.6
78520;SHT31;67818;51.986;5.648;2023-04-03T00:09:42;5.1;61.8
78520;SHT31;67818;51.986;5.648;2023-04-03T00:12:12;5.1;61.3
78520;SHT31;67818;51.986;5.648;2023-04-03T00:14:43;5.1;61.2
78520;SHT31;67818;51.986;5.648;2023-04-03T00:17:13;5.1;61.2
78520;SHT31;67818;51.986;5.648;2023-04-03T00:19:43;5.0;61.3
78520;SHT31;67818;51.986;5.648;2023-04-03T00:22:12;5.0;61.8
78520;SHT31;67818;51.986;5.648;2023-04-03T00:24:42;4.9;61.6
78520;SHT31;67818;51.986;5.648;2023-04-03T00:27:11;4.8;61.7
78520;SHT31;67818;51.986;5.648;2023-04-03T00:29:43;4.8;62.0
78520;SHT31;67818;51.986;5.648;2023-04-03T00:32:13;4.7;62.0
78520;SHT31;67818;51.986;5.648;2023-04-03T00:34:43;4.7;62.3
78520;SHT31;67818;51.986;5.648;2023-04-03T00:37:13;4.6;62.6
78520;SHT31;67818;51.986;5.648;2023-04-03T00:39:42;4.6;62.5
78520;SHT31;67818;51.986;5.648;2023-04-03T00:42:13;4.6;63.0
78520;SHT31;67818;51.986;5.648;2023-04-03T00:47:47;4.5;63.0
78520;SHT31;67818;51.986;5.648;2023-04-03T00:50:18;4.4;63.0
78520;SHT31;67818;51.986;5.648;2023-04-03T00:52:48;4.4;63.1
78520;SHT31;67818;51.986;5.648;2023-04-03T00:55:19;4.4;63.2
78520;SHT31;67818;51.986;5.648;2023-04-03T00:57:50;4.4;63.1
78520;SHT31;67818;51.986;5.648;2023-04-03T01:00:22;4.3;63.3
78520;SHT31;67818;51.986;5.648;2023-04-03T01:02:53;4.3;63.3
78520;SHT31;67818;51.986;5.648;2023-04-03T01:05:24;4.3;63.3
78520;SHT31;67818;51.986;5.648;2023-04-03T01:07:54;4.3;63.4
78520;SHT31;67818;51.986;5.648;2023-04-03T01:10:24;4.3;63.5
78520;SHT31;67818;51.986;5.648;2023-04-03T01:12:54;4.2;63.8
78520;SHT31;67818;51.986;5.648;2023-04-03T01:15:26;4.2;63.6
78520;SHT31;67818;51.986;5.648;2023-04-03T01:17:58;4.2;63.6
78520;SHT31;67818;51.986;5.648;2023-04-03T01:22:19;4.2;63.8
78520;SHT31;67818;51.986;5.648;2023-04-03T01:24:56;4.1;63.9
78520;SHT31;67818;51.986;5.648;2023-04-03T01:27:27;4.1;64.1
78520;SHT31;67818;51.986;5.648;2023-04-03T01:29:57;4.1;64.0
78520;SHT31;67818;51.986;5.648;2023-04-03T01:32:27;4.1;64.4
78520;SHT31;67818;51.986;5.648;2023-04-03T01:34:57;4.1;64.3
78520;SHT31;67818;51.986;5.648;2023-04-03T01:37:26;4.1;64.4
78520;SHT31;67818;51.986;5.648;2023-04-03T01:39:56;4.0;64.5
78520;SHT31;67818;51.986;5.648;2023-04-03T01:42:25;4.0;64.6
78520;SHT31;67818;51.986;5.648;2023-04-03T01:44:55;4.0;64.7
78520;SHT31;67818;51.986;5.648;2023-04-03T01:47:26;4.0;64.8
78520;SHT31;67818;51.986;5.648;2023-04-03T01:49:56;3.9;65.0
78520;SHT31;67818;51.986;5.648;2023-04-03T01:52:25;3.9;65.3
78520;SHT31;67818;51.986;5.648;2023-04-03T01:54:55;3.9;65.3
78520;SHT31;67818;51.986;5.648;2023-04-03T01:57:24;3.9;65.7
78520;SHT31;67818;51.986;5.648;2023-04-03T01:59:54;3.9;65.6
78520;SHT31;67818;51.986;5.648;2023-04-03T02:02:24;3.9;65.7
78520;SHT31;67818;51.986;5.648;2023-04-03T02:04:53;3.8;65.9
78520;SHT31;67818;51.986;5.648;2023-04-03T02:07:23;3.8;65.9
78520;SHT31;67818;51.986;5.648;2023-04-03T02:09:52;3.8;66.1
78520;SHT31;67818;51.986;5.648;2023-04-03T02:12:22;3.8;66.3
78520;SHT31;67818;51.986;5.648;2023-04-03T02:14:52;3.8;66.3
78520;SHT31;67818;51.986;5.648;2023-04-03T02:17:21;3.8;66.2
78520;SHT31;67818;51.986;5.648;2023-04-03T02:19:51;3.8;66.4
78520;SHT31;67818;51.986;5.648;2023-04-03T02:22:21;3.8;66.3
78520;SHT31;67818;51.986;5.648;2023-04-03T02:24:50;3.8;66.4
78520;SHT31;67818;51.986;5.648;2023-04-03T02:27:20;3.8;66.4
78520;SHT31;67818;51.986;5.648;2023-04-03T02:29:49;3.8;66.7
78520;SHT31;67818;51.986;5.648;2023-04-03T02:32:20;3.8;66.9
78520;SHT31;67818;51.986;5.648;2023-04-03T02:34:49;3.8;66.8
78520;SHT31;67818;51.986;5.648;2023-04-03T02:37:19;3.8;67.0
78520;SHT31;67818;51.986;5.648;2023-04-03T02:39:50;3.8;67.0
78520;SHT31;67818;51.986;5.648;2023-04-03T02:42:19;3.8;67.1
78520;SHT31;67818;51.986;5.648;2023-04-03T02:44:49;3.8;67.1
78520;SHT31;67818;51.986;5.648;2023-04-03T02:47:19;3.8;67.2
78520;SHT31;67818;51.986;5.648;2023-04-03T02:49:48;3.8;67.2
78520;SHT31;67818;51.986;5.648;2023-04-03T02:52:20;3.8;67.3
78520;SHT31;67818;51.986;5.648;2023-04-03T02:54:49;3.8;67.4
78520;SHT31;67818;51.986;5.648;2023-04-03T02:57:19;3.8;67.5
78520;SHT31;67818;51.986;5.648;2023-04-03T02:59:49;3.8;67.5
78520;SHT31;67818;51.986;5.648;2023-04-03T03:02:18;3.7;67.6
78520;SHT31;67818;51.986;5.648;2023-04-03T03:04:48;3.7;67.6
78520;SHT31;67818;51.986;5.648;2023-04-03T03:07:18;3.7;67.6
78520;SHT31;67818;51.986;5.648;2023-04-03T03:09:48;3.7;67.8
78520;SHT31;67818;51.986;5.648;2023-04-03T03:12:18;3.7;67.8
78520;SHT31;67818;51.986;5.648;2023-04-03T03:14:49;3.7;68.0
78520;SHT31;67818;51.986;5.648;2023-04-03T03:17:18;3.7;68.1
78520;SHT31;67818;51.986;5.648;2023-04-03T03:19:48;3.6;68.2
78520;SHT31;67818;51.986;5.648;2023-04-03T03:22:18;3.6;68.3
78520;SHT31;67818;51.986;5.648;2023-04-03T03:24:47;3.6;68.4
78520;SHT31;67818;51.986;5.648;2023-04-03T03:27:18;3.8;67.2
78520;SHT31;67818;51.986;5.648;2023-04-03T03:29:48;3.8;67.3
78520;SHT31;67818;51.986;5.648;2023-04-03T03:32:17;3.9;67.3
78520;SHT31;67818;51.986;5.648;2023-04-03T03:34:47;3.8;67.3
78520;SHT31;67818;51.986;5.648;2023-04-03T03:37:17;3.8;67.4
78520;SHT31;67818;51.986;5.648;2023-04-03T03:39:47;3.8;67.5
78520;SHT31;67818;51.986;5.648;2023-04-03T03:42:16;3.8;67.4
78520;SHT31;67818;51.986;5.648;2023-04-03T03:44:46;3.7;67.7
78520;SHT31;67818;51.986;5.648;2023-04-03T03:47:17;3.7;68.0
78520;SHT31;67818;51.986;5.648;2023-04-03T03:49:47;3.6;68.1
78520;SHT31;67818;51.986;5.648;2023-04-03T03:52:17;3.6;68.0
78520;SHT31;67818;51.986;5.648;2023-04-03T03:54:47;3.6;68.0
78520;SHT31;67818;51.986;5.648;2023-04-03T03:57:16;3.6;68.1
78520;SHT31;67818;51.986;5.648;2023-04-03T03:59:46;3.6;68.3
78520;SHT31;67818;51.986;5.648;2023-04-03T04:02:17;3.6;68.4
78520;SHT31;67818;51.986;5.648;2023-04-03T04:04:48;3.5;68.6
78520;SHT31;67818;51.986;5.648;2023-04-03T04:07:18;3.5;69.1
78520;SHT31;67818;51.986;5.648;2023-04-03T04:09:48;3.5;69.4
78520;SHT31;67818;51.986;5.648;2023-04-03T04:12:20;3.6;69.2
78520;SHT31;67818;51.986;5.648;2023-04-03T04:14:49;3.7;68.5
78520;SHT31;67818;51.986;5.648;2023-04-03T04:17:21;3.7;68.1
78520;SHT31;67818;51.986;5.648;2023-04-03T04:19:50;3.7;67.9
78520;SHT31;67818;51.986;5.648;2023-04-03T04:22:20;3.7;67.9
78520;SHT31;67818;51.986;5.648;2023-04-03T04:24:49;3.6;68.0
78520;SHT31;67818;51.986;5.648;2023-04-03T04:27:21;3.6;68.2
78520;SHT31;67818;51.986;5.648;2023-04-03T04:29:52;3.5;68.4
78520;SHT31;67818;51.986;5.648;2023-04-03T09:01:30;12.3;28.1
78520;SHT31;67818;51.986;5.648;2023-04-03T09:04:11;12.3;27.2
78520;SHT31;67818;51.986;5.648;2023-04-03T09:06:45;12.2;27.2
78520;SHT31;67818;51.986;5.648;2023-04-03T09:09:28;12.1;28.4
78520;SHT31;67818;51.986;5.648;2023-04-03T09:12:12;12.1;26.6
78520;SHT31;67818;51.986;5.648;2023-04-03T09:14:52;12.0;28.0
78520;SHT31;67818;51.986;5.648;2023-04-03T09:17:38;12.0;27.3
78520;SHT31;67818;51.986;5.648;2023-04-03T09:20:21;11.9;27.7
78520;SHT31;67818;51.986;5.648;2023-04-03T09:22:54;11.9;26.2
78520;SHT31;67818;51.986;5.648;2023-04-03T09:25:27;11.8;25.9
78520;SHT31;67818;51.986;5.648;2023-04-03T09:27:59;11.8;24.8
78520;SHT31;67818;51.986;5.648;2023-04-03T09:30:31;11.8;24.3
78520;SHT31;67818;51.986;5.648;2023-04-03T09:33:02;11.7;23.5
78520;SHT31;67818;51.986;5.648;2023-04-03T09:35:35;11.6;23.7
78520;SHT31;67818;51.986;5.648;2023-04-03T09:38:18;11.6;23.0
78520;SHT31;67818;51.986;5.648;2023-04-03T09:40:51;11.6;23.7
78520;SHT31;67818;51.986;5.648;2023-04-03T09:43:29;11.6;23.2
78520;SHT31;67818;51.986;5.648;2023-04-03T09:46:17;11.5;22.2
78520;SHT31;67818;51.986;5.648;2023-04-03T09:48:56;11.4;23.5
78520;SHT31;67818;51.986;5.648;2023-04-03T09:51:28;11.3;22.6
78520;SHT31;67818;51.986;5.648;2023-04-03T09:53:59;11.2;22.7
78520;SHT31;67818;51.986;5.648;2023-04-03T09:56:33;11.1;23.1
78520;SHT31;67818;51.986;5.648;2023-04-03T09:59:13;11.0;23.6
78520;SHT31;67818;51.986;5.648;2023-04-03T10:01:58;11.0;23.3
78520;SHT31;67818;51.986;5.648;2023-04-03T10:04:40;11.1;22.6
78520;SHT31;67818;51.986;5.648;2023-04-03T10:07:30;11.1;23.6
78520;SHT31;67818;51.986;5.648;2023-04-03T10:10:17;11.2;23.7
78520;SHT31;67818;51.986;5.648;2023-04-03T10:13:05;11.2;23.9
78520;SHT31;67818;51.986;5.648;2023-04-03T10:15:45;11.2;24.7
78520;SHT31;67818;51.986;5.648;2023-04-03T10:18:31;11.2;24.1
78520;SHT31;67818;51.986;5.648;2023-04-03T10:22:27;12.0;23.8
78520;SHT31;67818;51.986;5.648;2023-04-03T10:27:48;11.8;22.1
78520;SHT31;67818;51.986;5.648;2023-04-03T10:30:36;11.9;22.4
78520;SHT31;67818;51.986;5.648;2023-04-03T10:33:30;12.0;22.6
78520;SHT31;67818;51.986;5.648;2023-04-03T10:36:12;12.0;22.6
78520;SHT31;67818;51.986;5.648;2023-04-03T10:38:54;12.1;23.1
78520;SHT31;67818;51.986;5.648;2023-04-03T10:41:38;12.0;23.5
78520;SHT31;67818;51.986;5.648;2023-04-03T10:44:16;12.0;24.3
78520;SHT31;67818;51.986;5.648;2023-04-03T10:46:52;11.9;25.0
78520;SHT31;67818;51.986;5.648;2023-04-03T10:49:36;11.9;26.3
78520;SHT31;67818;51.986;5.648;2023-04-03T10:52:20;11.9;26.3
78520;SHT31;67818;51.986;5.648;2023-04-03T10:55:01;11.9;25.2
78520;SHT31;67818;51.986;5.648;2023-04-03T10:57:33;11.9;25.2
78520;SHT31;67818;51.986;5.648;2023-04-03T11:00:06;11.8;25.7
78520;SHT31;67818;51.986;5.648;2023-04-03T11:02:48;11.8;25.7
78520;SHT31;67818;51.986;5.648;2023-04-03T11:05:28;11.7;26.8
78520;SHT31;67818;51.986;5.648;2023-04-03T11:08:04;11.8;26.7
78520;SHT31;67818;51.986;5.648;2023-04-03T11:10:42;11.9;26.4
78520;SHT31;67818;51.986;5.648;2023-04-03T11:13:18;12.0;26.0
78520;SHT31;67818;51.986;5.648;2023-04-03T11:15:53;12.1;26.0
78520;SHT31;67818;51.986;5.648;2023-04-03T11:18:31;12.1;26.5
78520;SHT31;67818;51.986;5.648;2023-04-03T11:21:09;12.2;27.2
78520;SHT31;67818;51.986;5.648;2023-04-03T11:23:41;12.4;26.7
78520;SHT31;67818;51.986;5.648;2023-04-03T11:26:14;12.5;26.3
78520;SHT31;67818;51.986;5.648;2023-04-03T11:28:46;12.6;26.5
78520;SHT31;67818;51.986;5.648;2023-04-03T11:32:11;12.7;25.3
78520;SHT31;67818;51.986;5.648;2023-04-03T11:34:48;12.7;26.1
78520;SHT31;67818;51.986;5.648;2023-04-03T11:37:27;12.7;26.1
78520;SHT31;67818;51.986;5.648;2023-04-03T11:40:02;12.8;25.4
78520;SHT31;67818;51.986;5.648;2023-04-03T11:42:37;12.8;25.6
78520;SHT31;67818;51.986;5.648;2023-04-03T11:47:02;12.8;25.6
78520;SHT31;67818;51.986;5.648;2023-04-03T11:49:58;12.8;25.2
78520;SHT31;67818;51.986;5.648;2023-04-03T11:53:00;12.9;25.5
78520;SHT31;67818;51.986;5.648;2023-04-03T11:55:59;12.9;24.8
78520;SHT31;67818;51.986;5.648;2023-04-03T11:58:31;12.9;25.2
78520;SHT31;67818;51.986;5.648;2023-04-03T12:02:46;14.0;23.7
78520;SHT31;67818;51.986;5.648;2023-04-03T12:10:12;14.3;23.1
78520;SHT31;67818;51.986;5.648;2023-04-03T12:12:41;14.3;23.3
78520;SHT31;67818;51.986;5.648;2023-04-03T12:15:48;14.3;23.2
78520;SHT31;67818;51.986;5.648;2023-04-03T12:23:25;14.3;25.2
78520;SHT31;67818;51.986;5.648;2023-04-03T12:30:19;14.5;24.3
78520;SHT31;67818;51.986;5.648;2023-04-03T12:33:50;14.6;23.1
78520;SHT31;67818;51.986;5.648;2023-04-03T12:36:33;14.5;23.3
78520;SHT31;67818;51.986;5.648;2023-04-03T12:39:13;14.4;23.7
78520;SHT31;67818;51.986;5.648;2023-04-03T12:41:56;14.4;23.7
78520;SHT31;67818;51.986;5.648;2023-04-03T12:48:27;14.5;24.3
78520;SHT31;67818;51.986;5.648;2023-04-03T12:55:14;14.6;24.7
78520;SHT31;67818;51.986;5.648;2023-04-03T13:06:20;14.2;25.0
78520;SHT31;67818;51.986;5.648;2023-04-03T13:08:53;14.1;24.3
78520;SHT31;67818;51.986;5.648;2023-04-03T13:41:39;14.6;23.7
78520;SHT31;67818;51.986;5.648;2023-04-03T14:14:39;14.3;25.8
78520;SHT31;67818;51.986;5.648;2023-04-03T14:23:37;14.1;26.2
78520;SHT31;67818;51.986;5.648;2023-04-03T14:26:43;13.7;26.3
78520;SHT31;67818;51.986;5.648;2023-04-03T14:33:34;14.2;26.4
78520;SHT31;67818;51.986;5.648;2023-04-03T14:36:12;14.3;26.1
78520;SHT31;67818;51.986;5.648;2023-04-03T14:40:29;13.9;26.4
78520;SHT31;67818;51.986;5.648;2023-04-03T14:42:59;13.9;27.3
78520;SHT31;67818;51.986;5.648;2023-04-03T14:45:28;13.9;27.2
78520;SHT31;67818;51.986;5.648;2023-04-03T14:47:59;13.9;27.2
78520;SHT31;67818;51.986;5.648;2023-04-03T14:50:28;14.0;27.4
78520;SHT31;67818;51.986;5.648;2023-04-03T14:53:00;14.0;27.9
78520;SHT31;67818;51.986;5.648;2023-04-03T14:55:30;14.0;27.6
78520;SHT31;67818;51.986;5.648;2023-04-03T14:57:59;14.0;27.9
78520;SHT31;67818;51.986;5.648;2023-04-03T15:00:29;14.0;28.6
78520;SHT31;67818;51.986;5.648;2023-04-03T15:03:00;14.0;27.9
78520;SHT31;67818;51.986;5.648;2023-04-03T15:05:30;14.0;26.9
78520;SHT31;67818;51.986;5.648;2023-04-03T15:07:59;14.0;27.3
78520;SHT31;67818;51.986;5.648;2023-04-03T15:10:30;14.0;27.8
78520;SHT31;67818;51.986;5.648;2023-04-03T15:13:03;13.9;28.1
78520;SHT31;67818;51.986;5.648;2023-04-03T15:15:34;13.9;27.8
78520;SHT31;67818;51.986;5.648;2023-04-03T15:18:05;13.8;28.3
78520;SHT31;67818;51.986;5.648;2023-04-03T15:20:36;13.7;28.2
78520;SHT31;67818;51.986;5.648;2023-04-03T15:23:06;13.5;28.9
78520;SHT31;67818;51.986;5.648;2023-04-03T15:25:35;13.4;29.5
78520;SHT31;67818;51.986;5.648;2023-04-03T15:28:05;13.3;29.0
78520;SHT31;67818;51.986;5.648;2023-04-03T15:30:36;13.2;28.9
78520;SHT31;67818;51.986;5.648;2023-04-03T15:33:07;13.1;29.8
78520;SHT31;67818;51.986;5.648;2023-04-03T15:35:37;12.9;30.3
78520;SHT31;67818;51.986;5.648;2023-04-03T15:38:08;12.8;30.2
78520;SHT31;67818;51.986;5.648;2023-04-03T15:40:38;12.7;30.3
78520;SHT31;67818;51.986;5.648;2023-04-03T15:43:08;12.6;31.0
78520;SHT31;67818;51.986;5.648;2023-04-03T15:45:38;12.5;30.9
78520;SHT31;67818;51.986;5.648;2023-04-03T15:48:09;12.5;31.8
78520;SHT31;67818;51.986;5.648;2023-04-03T15:50:40;12.4;31.1
78520;SHT31;67818;51.986;5.648;2023-04-03T15:53:10;12.3;31.5
78520;SHT31;67818;51.986;5.648;2023-04-03T15:55:40;12.1;32.1
78520;SHT31;67818;51.986;5.648;2023-04-03T15:58:09;12.0;32.4
78520;SHT31;67818;51.986;5.648;2023-04-03T16:00:42;11.9;31.7
78520;SHT31;67818;51.986;5.648;2023-04-03T16:03:16;11.8;32.0
78520;SHT31;67818;51.986;5.648;2023-04-03T16:05:46;11.6;32.9
78520;SHT31;67818;51.986;5.648;2023-04-03T16:08:17;11.5;33.4
78520;SHT31;67818;51.986;5.648;2023-04-03T16:10:47;11.4;34.3
78520;SHT31;67818;51.986;5.648;2023-04-03T16:13:17;11.3;34.0
78520;SHT31;67818;51.986;5.648;2023-04-03T16:15:47;11.3;33.9
78520;SHT31;67818;51.986;5.648;2023-04-03T16:18:17;11.2;33.6
78520;SHT31;67818;51.986;5.648;2023-04-03T16:20:48;11.1;34.3
78520;SHT31;67818;51.986;5.648;2023-04-03T16:23:19;11.1;33.7
78520;SHT31;67818;51.986;5.648;2023-04-03T16:25:49;11.0;34.3
78520;SHT31;67818;51.986;5.648;2023-04-03T16:28:19;11.0;33.7
78520;SHT31;67818;51.986;5.648;2023-04-03T16:30:48;11.0;33.8
78520;SHT31;67818;51.986;5.648;2023-04-03T16:33:18;10.9;33.3
78520;SHT31;67818;51.986;5.648;2023-04-03T16:35:50;10.8;33.7
78520;SHT31;67818;51.986;5.648;2023-04-03T16:38:19;10.8;33.8
78520;SHT31;67818;51.986;5.648;2023-04-03T16:40:49;10.7;34.1
78520;SHT31;67818;51.986;5.648;2023-04-03T16:43:19;10.6;34.6
78520;SHT31;67818;51.986;5.648;2023-04-03T16:45:49;10.6;34.7
78520;SHT31;67818;51.986;5.648;2023-04-03T16:48:19;10.5;35.2
78520;SHT31;67818;51.986;5.648;2023-04-03T16:50:49;10.5;35.0
78520;SHT31;67818;51.986;5.648;2023-04-03T16:53:21;10.4;35.3
78520;SHT31;67818;51.986;5.648;2023-04-03T16:55:51;10.4;35.5
78520;SHT31;67818;51.986;5.648;2023-04-03T16:58:20;10.3;35.7
78520;SHT31;67818;51.986;5.648;2023-04-03T17:00:50;10.3;35.7
78520;SHT31;67818;51.986;5.648;2023-04-03T17:03:21;10.2;35.7
78520;SHT31;67818;51.986;5.648;2023-04-03T17:05:53;10.2;36.0
78520;SHT31;67818;51.986;5.648;2023-04-03T17:08:23;10.1;36.4
78520;SHT31;67818;51.986;5.648;2023-04-03T17:10:52;10.1;36.4
78520;SHT31;67818;51.986;5.648;2023-04-03T17:13:24;10.0;36.8
78520;SHT31;67818;51.986;5.648;2023-04-03T17:15:58;10.0;37.5
78520;SHT31;67818;51.986;5.648;2023-04-03T17:18:31;10.0;36.3
78520;SHT31;67818;51.986;5.648;2023-04-03T17:21:01;9.9;36.5
78520;SHT31;67818;51.986;5.648;2023-04-03T17:23:33;9.9;36.2
78520;SHT31;67818;51.986;5.648;2023-04-03T17:26:03;9.8;36.6
78520;SHT31;67818;51.986;5.648;2023-04-03T17:28:33;9.8;35.9
78520;SHT31;67818;51.986;5.648;2023-04-03T17:31:04;9.7;36.1
78520;SHT31;67818;51.986;5.648;2023-04-03T17:33:34;9.7;36.0
78520;SHT31;67818;51.986;5.648;2023-04-03T17:36:05;9.7;36.3
78520;SHT31;67818;51.986;5.648;2023-04-03T17:38:35;9.6;36.5
78520;SHT31;67818;51.986;5.648;2023-04-03T17:41:08;9.6;36.9
78520;SHT31;67818;51.986;5.648;2023-04-03T17:43:37;9.5;37.5
78520;SHT31;67818;51.986;5.648;2023-04-03T17:46:14;9.5;37.5
78520;SHT31;67818;51.986;5.648;2023-04-03T17:48:46;9.6;36.9
78520;SHT31;67818;51.986;5.648;2023-04-03T17:51:20;9.6;37.0
78520;SHT31;67818;51.986;5.648;2023-04-03T17:53:54;9.6;37.0
78520;SHT31;67818;51.986;5.648;2023-04-03T17:56:25;9.6;37.1
78520;SHT31;67818;51.986;5.648;2023-04-03T17:58:56;9.6;37.0
78520;SHT31;67818;51.986;5.648;2023-04-03T18:01:29;9.5;37.6
78520;SHT31;67818;51.986;5.648;2023-04-03T18:04:03;9.5;37.3
78520;SHT31;67818;51.986;5.648;2023-04-03T18:06:38;9.4;37.4
78520;SHT31;67818;51.986;5.648;2023-04-03T18:09:11;9.4;37.6
78520;SHT31;67818;51.986;5.648;2023-04-03T18:11:43;9.3;38.0
78520;SHT31;67818;51.986;5.648;2023-04-03T18:14:19;9.3;38.0
78520;SHT31;67818;51.986;5.648;2023-04-03T18:16:50;9.2;38.0
78520;SHT31;67818;51.986;5.648;2023-04-03T18:19:23;9.2;38.4
78520;SHT31;67818;51.986;5.648;2023-04-03T18:22:00;9.1;38.7
78520;SHT31;67818;51.986;5.648;2023-04-03T18:24:32;9.1;39.2
78520;SHT31;67818;51.986;5.648;2023-04-03T18:27:06;9.0;39.0
78520;SHT31;67818;51.986;5.648;2023-04-03T18:29:41;9.0;39.9
78520;SHT31;67818;51.986;5.648;2023-04-03T18:32:15;8.9;39.9
78520;SHT31;67818;51.986;5.648;2023-04-03T18:34:46;8.9;40.1
78520;SHT31;67818;51.986;5.648;2023-04-03T18:37:17;8.8;40.3
78520;SHT31;67818;51.986;5.648;2023-04-03T18:39:48;8.8;40.2
78520;SHT31;67818;51.986;5.648;2023-04-03T18:42:24;8.7;40.2
78520;SHT31;67818;51.986;5.648;2023-04-03T18:45:03;8.7;40.5
78520;SHT31;67818;51.986;5.648;2023-04-03T18:47:34;8.6;40.6
78520;SHT31;67818;51.986;5.648;2023-04-03T18:50:05;8.5;40.8
78520;SHT31;67818;51.986;5.648;2023-04-03T18:52:38;8.5;41.0
78520;SHT31;67818;51.986;5.648;2023-04-03T18:55:09;8.4;41.3
78520;SHT31;67818;51.986;5.648;2023-04-03T18:57:43;8.4;42.0
78520;SHT31;67818;51.986;5.648;2023-04-03T19:00:16;8.3;41.6
78520;SHT31;67818;51.986;5.648;2023-04-03T19:02:47;8.3;41.7
78520;SHT31;67818;51.986;5.648;2023-04-03T19:05:20;8.2;41.7
78520;SHT31;67818;51.986;5.648;2023-04-03T19:07:54;8.2;41.8
78520;SHT31;67818;51.986;5.648;2023-04-03T19:10:25;8.1;42.1
78520;SHT31;67818;51.986;5.648;2023-04-03T19:12:56;8.0;43.0
78520;SHT31;67818;51.986;5.648;2023-04-03T19:15:26;8.0;43.1
78520;SHT31;67818;51.986;5.648;2023-04-03T19:21:11;7.9;43.7
78520;SHT31;67818;51.986;5.648;2023-04-03T22:15:01;6.8;45.0
78520;SHT31;67818;51.986;5.648;2023-04-03T22:17:31;6.4;45.9
78520;SHT31;67818;51.986;5.648;2023-04-03T22:20:00;6.2;47.4
78520;SHT31;67818;51.986;5.648;2023-04-03T22:22:30;6.0;46.9
78520;SHT31;67818;51.986;5.648;2023-04-03T22:25:00;5.9;47.9
78520;SHT31;67818;51.986;5.648;2023-04-03T22:27:32;5.8;49.0
78520;SHT31;67818;51.986;5.648;2023-04-03T22:30:03;5.6;49.8
78520;SHT31;67818;51.986;5.648;2023-04-03T22:32:33;5.5;50.0
78520;SHT31;67818;51.986;5.648;2023-04-03T22:35:03;5.4;50.4
78520;SHT31;67818;51.986;5.648;2023-04-03T22:37:33;5.2;50.7
78520;SHT31;67818;51.986;5.648;2023-04-03T22:40:04;5.1;51.2
78520;SHT31;67818;51.986;5.648;2023-04-03T22:42:35;5.0;51.7
78520;SHT31;67818;51.986;5.648;2023-04-03T22:45:06;4.9;51.9
78520;SHT31;67818;51.986;5.648;2023-04-03T22:47:36;4.8;52.3
78520;SHT31;67818;51.986;5.648;2023-04-03T22:50:09;4.7;53.9
78520;SHT31;67818;51.986;5.648;2023-04-03T22:52:39;4.6;54.0
78520;SHT31;67818;51.986;5.648;2023-04-03T22:55:10;4.5;53.7
78520;SHT31;67818;51.986;5.648;2023-04-03T22:57:39;4.4;54.8
78520;SHT31;67818;51.986;5.648;2023-04-03T23:00:10;4.3;55.6
78520;SHT31;67818;51.986;5.648;2023-04-03T23:02:40;4.2;55.3
78520;SHT31;67818;51.986;5.648;2023-04-03T23:05:10;4.1;55.9
78520;SHT31;67818;51.986;5.648;2023-04-03T23:07:40;4.0;55.4
78520;SHT31;67818;51.986;5.648;2023-04-03T23:10:10;3.9;55.5
78520;SHT31;67818;51.986;5.648;2023-04-03T23:12:40;3.9;55.0
78520;SHT31;67818;51.986;5.648;2023-04-03T23:15:10;3.8;54.7
78520;SHT31;67818;51.986;5.648;2023-04-03T23:17:41;3.7;55.2
78520;SHT31;67818;51.986;5.648;2023-04-03T23:20:12;3.7;55.3
78520;SHT31;67818;51.986;5.648;2023-04-03T23:22:43;3.7;55.1
78520;SHT31;67818;51.986;5.648;2023-04-03T23:25:15;3.6;54.6
78520;SHT31;67818;51.986;5.648;2023-04-03T23:27:51;3.6;55.1
78520;SHT31;67818;51.986;5.648;2023-04-03T23:30:23;3.7;54.9
78520;SHT31;67818;51.986;5.648;2023-04-03T23:32:52;3.7;55.0
78520;SHT31;67818;51.986;5.648;2023-04-03T23:35:24;3.7;54.7
78520;SHT31;67818;51.986;5.648;2023-04-03T23:37:53;3.7;56.2
78520;SHT31;67818;51.986;5.648;2023-04-03T23:40:23;3.7;56.5
78520;SHT31;67818;51.986;5.648;2023-04-03T23:42:52;3.7;56.3
78520;SHT31;67818;51.986;5.648;2023-04-03T23:45:22;3.6;56.4
78520;SHT31;67818;51.986;5.648;2023-04-03T23:47:52;3.6;55.7
78520;SHT31;67818;51.986;5.648;2023-04-03T23:50:21;3.6;55.4
78520;SHT31;67818;51.986;5.648;2023-04-03T23:52:51;3.5;55.1
78520;SHT31;67818;51.986;5.648;2023-04-03T23:55:21;3.5;55.3
78520;SHT31;67818;51.986;5.648;2023-04-03T23:57:52;3.5;55.3
